createdAt,value
2018-04-15T00:00:35.698Z,17.4
2018-04-15T00:10:34.941Z,17.4
2018-04-15T00:20:34.492Z,17.3
2018-04-15T00:30:33.703Z,17.2
2018-04-15T00:40:32.809Z,17.1
2018-04-15T00:50:32.092Z,17.1
2018-04-15T01:00:30.998Z,17.1
2018-04-15T01:10:30.636Z,16.9
2018-04-15T01:20:29.705Z,16.9
2018-04-15T01:30:28.884Z,16.9
2018-04-15T01:40:28.429Z,16.8
2018-04-15T01:50:27.327Z,16.8
2018-04-15T02:00:26.242Z,16.8
2018-04-15T02:10:25.750Z,16.7
2018-04-15T02:20:25.011Z,16.5
2018-04-15T02:30:24.210Z,16.3
2018-04-15T02:40:23.199Z,16.2
2018-04-15T02:50:22.617Z,16.1
2018-04-15T03:00:22.131Z,16
2018-04-15T03:10:20.800Z,15.9
2018-04-15T03:20:20.325Z,15.9
2018-04-15T03:30:19.540Z,16
2018-04-15T03:40:18.417Z,16.1
2018-04-15T03:50:17.749Z,16.1
2018-04-15T04:00:16.928Z,16.1
2018-04-15T04:10:16.083Z,16.2
2018-04-15T04:20:15.565Z,16.3
2018-04-15T04:30:15.152Z,16.4
2018-04-15T04:40:14.056Z,16.7
2018-04-15T04:50:12.963Z,18.9
2018-04-15T05:00:12.221Z,20.1
2018-04-15T05:10:11.652Z,18.6
2018-04-15T05:20:10.737Z,18.1
2018-04-15T05:30:10.133Z,17.8
2018-04-15T05:40:09.156Z,18.8
2018-04-15T05:50:08.555Z,19.4
2018-04-15T06:00:08.055Z,19.8
2018-04-15T06:10:07.329Z,20
2018-04-15T06:20:06.174Z,20.7
2018-04-15T06:30:05.162Z,21.3
2018-04-15T06:40:04.721Z,21.2
2018-04-15T06:50:03.624Z,21.7
2018-04-15T07:00:02.782Z,22.1
2018-04-15T07:10:02.289Z,22.8
2018-04-15T07:20:01.193Z,22.9
2018-04-15T07:30:00.421Z,23.6
2018-04-15T07:39:59.675Z,23.6
2018-04-15T07:49:59.145Z,22.2
2018-04-15T07:59:58.401Z,23.6
2018-04-15T08:09:57.291Z,24.1
2018-04-15T08:19:57.087Z,23.9
2018-04-15T08:29:55.821Z,24.3
2018-04-15T08:39:55.263Z,24.5
2018-04-15T08:49:54.365Z,23.4
2018-04-15T08:59:53.380Z,23.3
2018-04-15T09:09:52.607Z,22.7
2018-04-15T09:19:52.105Z,22
2018-04-15T09:29:51.330Z,21.4
2018-04-15T09:39:50.292Z,21.1
2018-04-15T09:49:49.595Z,20.6
2018-04-15T09:59:49.215Z,20.1
2018-04-15T10:09:47.936Z,20.1
2018-04-15T10:19:47.187Z,20
2018-04-15T10:29:46.437Z,20
2018-04-15T10:39:45.994Z,20.1
2018-04-15T10:49:45.222Z,20.9
2018-04-15T10:59:44.029Z,21.3
2018-04-15T11:09:43.716Z,21.3
2018-04-15T11:19:42.514Z,20.9
2018-04-15T11:29:41.817Z,20.6
2018-04-15T11:39:40.938Z,20.6
2018-04-15T11:49:40.396Z,20.6
2018-04-15T11:59:39.475Z,20.4
2018-04-15T12:09:38.571Z,20.2
2018-04-15T12:19:37.852Z,19.9
2018-04-15T12:29:36.971Z,19.8
2018-04-15T12:39:36.614Z,19.8
2018-04-15T12:49:35.411Z,19.9
2018-04-15T12:59:35.361Z,19.7
2018-04-15T13:09:33.972Z,19.6
2018-04-15T13:19:33.074Z,19.7
2018-04-15T13:29:32.565Z,19.8
2018-04-15T13:39:31.575Z,19.8
2018-04-15T13:49:30.768Z,19.8
2018-04-15T13:59:29.998Z,19.7
2018-04-15T14:09:29.788Z,19.4
2018-04-15T14:19:28.987Z,19.2
2018-04-15T14:29:27.588Z,18.9
2018-04-15T14:39:27.417Z,18.9
2018-04-15T14:49:26.404Z,18.9
2018-04-15T14:59:25.516Z,18.9
2018-04-15T15:09:24.820Z,18.9
2018-04-15T15:19:23.985Z,18.6
2018-04-15T15:29:23.347Z,18.5
2018-04-15T15:39:22.167Z,18.2
2018-04-15T15:49:21.350Z,17.7
2018-04-15T15:59:20.593Z,17.4
2018-04-15T16:09:20.316Z,17.2
2018-04-15T16:19:18.965Z,16.8
2018-04-15T16:29:18.818Z,16.6
2018-04-15T16:39:17.552Z,16.4
2018-04-15T16:49:16.817Z,16.3
2018-04-15T16:59:15.849Z,16.6
2018-04-15T17:09:15.252Z,16.9
2018-04-15T17:19:14.661Z,17.1
2018-04-15T17:29:13.505Z,17.1
2018-04-15T17:39:12.783Z,17.1
2018-04-15T17:49:12.203Z,17.1
2018-04-15T17:59:11.480Z,17.1
2018-04-15T18:09:10.707Z,17.1
2018-04-15T18:19:09.919Z,17.1
2018-04-15T18:29:08.824Z,17.1
2018-04-15T18:39:08.145Z,17.1
2018-04-15T18:49:07.260Z,17.1
2018-04-15T18:59:06.450Z,17.1
2018-04-15T19:09:06.222Z,16.9
2018-04-15T19:19:05.209Z,16.8
2018-04-15T19:29:04.114Z,16.7
2018-04-15T19:39:03.613Z,16.7
2018-04-15T19:49:02.810Z,16.8
2018-04-15T19:59:02.122Z,16.8
2018-04-15T20:09:01.431Z,16.8
2018-04-15T20:19:00.597Z,16.9
2018-04-15T20:28:59.732Z,16.9
2018-04-15T20:38:58.643Z,16.9
2018-04-15T20:48:57.833Z,16.8
2018-04-15T20:58:57.054Z,16.6
2018-04-15T21:08:56.825Z,16.7
2018-04-15T21:18:55.783Z,16.7
2018-04-15T21:28:55.339Z,16.6
2018-04-15T21:38:54.506Z,16.6
2018-04-15T21:48:53.460Z,16.6
2018-04-15T21:58:52.642Z,16.6
2018-04-15T22:08:51.713Z,16.5
2018-04-15T22:18:51.080Z,16.4
2018-04-15T22:28:50.106Z,16.4
2018-04-15T22:38:49.496Z,16.4
2018-04-15T22:48:48.729Z,16.3
2018-04-15T22:58:47.776Z,16.3
2018-04-15T23:08:47.442Z,16.1
2018-04-15T23:18:46.090Z,16.1
2018-04-15T23:28:45.878Z,15.9
2018-04-15T23:38:44.517Z,15.9
2018-04-15T23:48:44.199Z,15.8
2018-04-15T23:58:43.036Z,15.7
